sensor_id;sensor_type;location;lat;lon;timestamp;temperature;humidity
5027;DHT22;2532;52.480;13.354;2024-01-30T00:00:41;6.20;86.70
5027;DHT22;2532;52.480;13.354;2024-01-30T00:03:08;6.20;86.80
5027;DHT22;2532;52.480;13.354;2024-01-30T00:05:35;6.10;87.50
5027;DHT22;2532;52.480;13.354;2024-01-30T00:08:03;6.10;86.90
5027;DHT22;2532;52.480;13.354;2024-01-30T00:10:32;6.20;86.90
5027;DHT22;2532;52.480;13.354;2024-01-30T00:12:59;6.10;86.90
5027;DHT22;2532;52.480;13.354;2024-01-30T00:15:26;6.10;87.00
5027;DHT22;2532;52.480;13.354;2024-01-30T00:17:53;6.10;87.10
5027;DHT22;2532;52.480;13.354;2024-01-30T00:20:22;6.00;87.10
5027;DHT22;2532;52.480;13.354;2024-01-30T00:22:49;6.00;87.20
5027;DHT22;2532;52.480;13.354;2024-01-30T00:25:16;6.10;87.30
5027;DHT22;2532;52.480;13.354;2024-01-30T00:27:45;6.00;87.20
5027;DHT22;2532;52.480;13.354;2024-01-30T00:30:13;6.00;87.30
5027;DHT22;2532;52.480;13.354;2024-01-30T00:32:40;6.00;87.50
5027;DHT22;2532;52.480;13.354;2024-01-30T00:35:07;6.00;87.50
5027;DHT22;2532;52.480;13.354;2024-01-30T00:37:35;6.00;87.50
5027;DHT22;2532;52.480;13.354;2024-01-30T00:40:03;6.00;87.60
5027;DHT22;2532;52.480;13.354;2024-01-30T00:42:31;5.90;87.50
5027;DHT22;2532;52.480;13.354;2024-01-30T00:45:00;5.90;87.60
5027;DHT22;2532;52.480;13.354;2024-01-30T00:47:26;5.90;87.60
5027;DHT22;2532;52.480;13.354;2024-01-30T00:49:54;5.90;87.70
5027;DHT22;2532;52.480;13.354;2024-01-30T00:52:21;5.90;87.80
5027;DHT22;2532;52.480;13.354;2024-01-30T00:54:48;5.90;87.80
5027;DHT22;2532;52.480;13.354;2024-01-30T00:57:18;5.90;87.90
5027;DHT22;2532;52.480;13.354;2024-01-30T00:59:45;5.90;88.00
5027;DHT22;2532;52.480;13.354;2024-01-30T01:02:14;5.90;88.00
5027;DHT22;2532;52.480;13.354;2024-01-30T01:04:42;5.90;88.00
5027;DHT22;2532;52.480;13.354;2024-01-30T01:07:10;5.90;88.00
5027;DHT22;2532;52.480;13.354;2024-01-30T01:09:37;5.90;88.10
5027;DHT22;2532;52.480;13.354;2024-01-30T01:12:06;5.80;88.10
5027;DHT22;2532;52.480;13.354;2024-01-30T01:14:32;5.90;88.30
5027;DHT22;2532;52.480;13.354;2024-01-30T01:16:59;5.90;88.30
5027;DHT22;2532;52.480;13.354;2024-01-30T01:19:28;5.90;88.30
5027;DHT22;2532;52.480;13.354;2024-01-30T01:22:00;5.90;89.00
5027;DHT22;2532;52.480;13.354;2024-01-30T01:24:30;5.90;88.30
5027;DHT22;2532;52.480;13.354;2024-01-30T01:27:00;5.90;88.30
5027;DHT22;2532;52.480;13.354;2024-01-30T01:29:30;5.90;88.20
5027;DHT22;2532;52.480;13.354;2024-01-30T01:31:58;5.90;88.20
5027;DHT22;2532;52.480;13.354;2024-01-30T01:34:25;5.90;88.30
5027;DHT22;2532;52.480;13.354;2024-01-30T01:36:53;5.80;88.30
5027;DHT22;2532;52.480;13.354;2024-01-30T01:39:23;5.80;88.40
5027;DHT22;2532;52.480;13.354;2024-01-30T01:41:50;5.80;88.50
5027;DHT22;2532;52.480;13.354;2024-01-30T01:44:17;5.80;88.50
5027;DHT22;2532;52.480;13.354;2024-01-30T01:46:44;5.80;88.60
5027;DHT22;2532;52.480;13.354;2024-01-30T01:49:12;5.70;88.60
5027;DHT22;2532;52.480;13.354;2024-01-30T01:51:43;5.70;88.70
5027;DHT22;2532;52.480;13.354;2024-01-30T01:54:14;5.70;89.40
5027;DHT22;2532;52.480;13.354;2024-01-30T01:56:42;5.70;88.90
5027;DHT22;2532;52.480;13.354;2024-01-30T01:59:10;5.70;88.90
5027;DHT22;2532;52.480;13.354;2024-01-30T02:01:39;5.70;88.90
5027;DHT22;2532;52.480;13.354;2024-01-30T02:04:07;5.70;89.00
5027;DHT22;2532;52.480;13.354;2024-01-30T02:06:34;5.70;89.10
5027;DHT22;2532;52.480;13.354;2024-01-30T02:09:04;5.70;89.20
5027;DHT22;2532;52.480;13.354;2024-01-30T02:11:33;5.60;89.10
5027;DHT22;2532;52.480;13.354;2024-01-30T02:14:02;5.60;89.20
5027;DHT22;2532;52.480;13.354;2024-01-30T02:16:30;5.60;89.30
5027;DHT22;2532;52.480;13.354;2024-01-30T02:18:57;5.60;89.40
5027;DHT22;2532;52.480;13.354;2024-01-30T02:21:26;5.60;89.60
5027;DHT22;2532;52.480;13.354;2024-01-30T02:23:54;5.60;89.60
5027;DHT22;2532;52.480;13.354;2024-01-30T02:26:22;5.50;89.70
5027;DHT22;2532;52.480;13.354;2024-01-30T02:28:49;5.50;89.70
5027;DHT22;2532;52.480;13.354;2024-01-30T02:31:16;5.50;89.80
5027;DHT22;2532;52.480;13.354;2024-01-30T02:33:43;5.50;89.90
5027;DHT22;2532;52.480;13.354;2024-01-30T02:36:10;5.60;90.00
5027;DHT22;2532;52.480;13.354;2024-01-30T02:38:38;5.60;90.00
5027;DHT22;2532;52.480;13.354;2024-01-30T02:41:05;5.50;90.00
5027;DHT22;2532;52.480;13.354;2024-01-30T02:43:35;5.50;89.90
5027;DHT22;2532;52.480;13.354;2024-01-30T02:46:03;5.50;90.30
5027;DHT22;2532;52.480;13.354;2024-01-30T02:48:30;5.50;90.00
5027;DHT22;2532;52.480;13.354;2024-01-30T02:50:56;5.50;90.00
5027;DHT22;2532;52.480;13.354;2024-01-30T02:53:24;5.50;90.10
5027;DHT22;2532;52.480;13.354;2024-01-30T02:55:52;5.40;90.10
5027;DHT22;2532;52.480;13.354;2024-01-30T02:58:19;5.40;90.10
5027;DHT22;2532;52.480;13.354;2024-01-30T03:00:50;5.40;90.10
5027;DHT22;2532;52.480;13.354;2024-01-30T03:03:16;5.40;90.20
5027;DHT22;2532;52.480;13.354;2024-01-30T03:05:43;5.30;90.20
5027;DHT22;2532;52.480;13.354;2024-01-30T03:08:10;5.30;90.30
5027;DHT22;2532;52.480;13.354;2024-01-30T03:10:37;5.30;90.30
5027;DHT22;2532;52.480;13.354;2024-01-30T03:13:05;5.30;90.30
5027;DHT22;2532;52.480;13.354;2024-01-30T03:15:32;5.30;90.40
5027;DHT22;2532;52.480;13.354;2024-01-30T03:17:59;5.30;90.40
5027;DHT22;2532;52.480;13.354;2024-01-30T03:20:26;5.30;90.50
5027;DHT22;2532;52.480;13.354;2024-01-30T03:22:55;5.30;90.50
5027;DHT22;2532;52.480;13.354;2024-01-30T03:25:22;5.30;90.50
5027;DHT22;2532;52.480;13.354;2024-01-30T03:27:51;5.30;90.50
5027;DHT22;2532;52.480;13.354;2024-01-30T03:30:19;5.30;90.60
5027;DHT22;2532;52.480;13.354;2024-01-30T03:32:46;5.30;90.90
5027;DHT22;2532;52.480;13.354;2024-01-30T03:35:13;5.20;90.60
5027;DHT22;2532;52.480;13.354;2024-01-30T03:37:40;5.20;90.70
5027;DHT22;2532;52.480;13.354;2024-01-30T03:40:08;5.20;90.70
5027;DHT22;2532;52.480;13.354;2024-01-30T03:42:35;5.20;90.80
5027;DHT22;2532;52.480;13.354;2024-01-30T03:45:03;5.20;90.90
5027;DHT22;2532;52.480;13.354;2024-01-30T03:47:31;5.20;90.90
5027;DHT22;2532;52.480;13.354;2024-01-30T03:49:58;5.20;90.90
5027;DHT22;2532;52.480;13.354;2024-01-30T03:52:25;5.20;91.00
5027;DHT22;2532;52.480;13.354;2024-01-30T03:54:52;5.30;91.00
5027;DHT22;2532;52.480;13.354;2024-01-30T03:57:19;5.30;91.00
5027;DHT22;2532;52.480;13.354;2024-01-30T03:59:46;5.30;91.00
5027;DHT22;2532;52.480;13.354;2024-01-30T04:02:13;5.20;91.00
5027;DHT22;2532;52.480;13.354;2024-01-30T04:04:42;5.20;91.00
5027;DHT22;2532;52.480;13.354;2024-01-30T04:07:09;5.20;91.00
5027;DHT22;2532;52.480;13.354;2024-01-30T04:09:36;5.20;91.20
5027;DHT22;2532;52.480;13.354;2024-01-30T04:12:03;5.20;91.10
5027;DHT22;2532;52.480;13.354;2024-01-30T04:14:32;5.10;91.10
5027;DHT22;2532;52.480;13.354;2024-01-30T04:16:59;5.10;91.10
5027;DHT22;2532;52.480;13.354;2024-01-30T04:19:26;5.10;91.50
5027;DHT22;2532;52.480;13.354;2024-01-30T04:21:54;5.10;91.30
5027;DHT22;2532;52.480;13.354;2024-01-30T04:24:24;5.10;91.30
5027;DHT22;2532;52.480;13.354;2024-01-30T04:26:51;5.00;91.30
5027;DHT22;2532;52.480;13.354;2024-01-30T04:29:18;5.00;91.40
5027;DHT22;2532;52.480;13.354;2024-01-30T04:31:45;5.00;91.50
5027;DHT22;2532;52.480;13.354;2024-01-30T04:34:12;5.00;91.60
5027;DHT22;2532;52.480;13.354;2024-01-30T04:36:39;5.00;91.60
5027;DHT22;2532;52.480;13.354;2024-01-30T04:39:07;5.00;91.60
5027;DHT22;2532;52.480;13.354;2024-01-30T04:41:34;5.00;91.70
5027;DHT22;2532;52.480;13.354;2024-01-30T04:44:05;5.00;91.70
5027;DHT22;2532;52.480;13.354;2024-01-30T04:46:32;5.00;91.70
5027;DHT22;2532;52.480;13.354;2024-01-30T04:49:00;5.00;91.70
5027;DHT22;2532;52.480;13.354;2024-01-30T04:51:26;5.00;91.80
5027;DHT22;2532;52.480;13.354;2024-01-30T04:53:53;5.00;91.80
5027;DHT22;2532;52.480;13.354;2024-01-30T04:56:22;5.00;91.80
5027;DHT22;2532;52.480;13.354;2024-01-30T04:58:49;5.00;91.80
5027;DHT22;2532;52.480;13.354;2024-01-30T05:01:17;5.10;91.90
5027;DHT22;2532;52.480;13.354;2024-01-30T05:03:44;5.10;91.80
5027;DHT22;2532;52.480;13.354;2024-01-30T05:06:27;5.10;91.80
5027;DHT22;2532;52.480;13.354;2024-01-30T05:08:54;5.00;91.80
5027;DHT22;2532;52.480;13.354;2024-01-30T05:11:21;5.10;92.20
5027;DHT22;2532;52.480;13.354;2024-01-30T05:13:48;5.10;92.20
5027;DHT22;2532;52.480;13.354;2024-01-30T05:16:15;5.10;91.90
5027;DHT22;2532;52.480;13.354;2024-01-30T05:18:41;5.00;91.90
5027;DHT22;2532;52.480;13.354;2024-01-30T05:21:09;5.00;91.90
5027;DHT22;2532;52.480;13.354;2024-01-30T05:23:38;5.00;91.90
5027;DHT22;2532;52.480;13.354;2024-01-30T05:26:07;5.10;92.00
5027;DHT22;2532;52.480;13.354;2024-01-30T05:28:34;5.10;91.90
5027;DHT22;2532;52.480;13.354;2024-01-30T05:31:02;5.10;91.90
5027;DHT22;2532;52.480;13.354;2024-01-30T05:33:28;5.10;92.20
5027;DHT22;2532;52.480;13.354;2024-01-30T05:35:55;5.10;91.90
5027;DHT22;2532;52.480;13.354;2024-01-30T05:38:22;5.10;91.90
5027;DHT22;2532;52.480;13.354;2024-01-30T05:40:50;5.10;91.90
5027;DHT22;2532;52.480;13.354;2024-01-30T05:43:17;5.10;91.90
5027;DHT22;2532;52.480;13.354;2024-01-30T05:45:44;5.10;91.90
5027;DHT22;2532;52.480;13.354;2024-01-30T05:48:11;5.10;91.90
5027;DHT22;2532;52.480;13.354;2024-01-30T05:50:38;5.10;91.90
5027;DHT22;2532;52.480;13.354;2024-01-30T05:53:08;5.00;91.80
5027;DHT22;2532;52.480;13.354;2024-01-30T05:55:35;5.10;91.90
5027;DHT22;2532;52.480;13.354;2024-01-30T05:58:03;5.10;91.90
5027;DHT22;2532;52.480;13.354;2024-01-30T06:00:30;5.00;91.90
5027;DHT22;2532;52.480;13.354;2024-01-30T06:02:57;5.10;91.90
5027;DHT22;2532;52.480;13.354;2024-01-30T06:05:24;5.00;91.90
5027;DHT22;2532;52.480;13.354;2024-01-30T06:07:51;5.00;91.90
5027;DHT22;2532;52.480;13.354;2024-01-30T06:10:17;5.10;92.00
5027;DHT22;2532;52.480;13.354;2024-01-30T06:12:44;5.00;92.00
5027;DHT22;2532;52.480;13.354;2024-01-30T06:15:13;5.00;92.00
5027;DHT22;2532;52.480;13.354;2024-01-30T06:17:40;5.10;92.30
5027;DHT22;2532;52.480;13.354;2024-01-30T06:20:07;5.10;92.00
5027;DHT22;2532;52.480;13.354;2024-01-30T06:22:34;5.10;92.00
5027;DHT22;2532;52.480;13.354;2024-01-30T06:25:01;5.10;92.00
5027;DHT22;2532;52.480;13.354;2024-01-30T06:27:28;5.20;92.00
5027;DHT22;2532;52.480;13.354;2024-01-30T06:29:55;5.20;92.00
5027;DHT22;2532;52.480;13.354;2024-01-30T06:32:26;5.20;92.00
5027;DHT22;2532;52.480;13.354;2024-01-30T06:34:54;5.20;92.00
5027;DHT22;2532;52.480;13.354;2024-01-30T06:37:21;5.20;92.00
5027;DHT22;2532;52.480;13.354;2024-01-30T06:39:47;5.20;92.00
5027;DHT22;2532;52.480;13.354;2024-01-30T06:42:14;5.20;91.90
5027;DHT22;2532;52.480;13.354;2024-01-30T06:44:41;5.20;91.90
5027;DHT22;2532;52.480;13.354;2024-01-30T06:47:08;5.20;91.90
5027;DHT22;2532;52.480;13.354;2024-01-30T06:49:36;5.20;91.90
5027;DHT22;2532;52.480;13.354;2024-01-30T06:52:05;5.20;92.00
5027;DHT22;2532;52.480;13.354;2024-01-30T06:54:32;5.20;92.00
5027;DHT22;2532;52.480;13.354;2024-01-30T06:56:59;5.20;92.00
5027;DHT22;2532;52.480;13.354;2024-01-30T06:59:26;5.20;92.00
5027;DHT22;2532;52.480;13.354;2024-01-30T07:01:53;5.30;92.10
5027;DHT22;2532;52.480;13.354;2024-01-30T07:04:20;5.20;92.10
5027;DHT22;2532;52.480;13.354;2024-01-30T07:06:48;5.30;92.10
5027;DHT22;2532;52.480;13.354;2024-01-30T07:09:15;5.30;92.10
5027;DHT22;2532;52.480;13.354;2024-01-30T07:11:41;5.30;92.10
5027;DHT22;2532;52.480;13.354;2024-01-30T07:14:09;5.40;92.00
5027;DHT22;2532;52.480;13.354;2024-01-30T07:16:36;5.40;92.00
5027;DHT22;2532;52.480;13.354;2024-01-30T07:19:03;5.50;92.10
5027;DHT22;2532;52.480;13.354;2024-01-30T07:21:30;5.50;92.10
5027;DHT22;2532;52.480;13.354;2024-01-30T07:23:58;5.50;92.10
5027;DHT22;2532;52.480;13.354;2024-01-30T07:26:25;5.60;92.00
5027;DHT22;2532;52.480;13.354;2024-01-30T07:28:51;5.60;92.00
5027;DHT22;2532;52.480;13.354;2024-01-30T07:31:18;5.60;92.00
5027;DHT22;2532;52.480;13.354;2024-01-30T07:33:48;5.70;91.90
5027;DHT22;2532;52.480;13.354;2024-01-30T07:36:15;5.70;91.70
5027;DHT22;2532;52.480;13.354;2024-01-30T07:38:42;5.70;91.60
5027;DHT22;2532;52.480;13.354;2024-01-30T07:41:10;5.70;91.70
5027;DHT22;2532;52.480;13.354;2024-01-30T07:43:38;5.80;92.10
5027;DHT22;2532;52.480;13.354;2024-01-30T07:46:06;5.80;92.00
5027;DHT22;2532;52.480;13.354;2024-01-30T07:48:33;5.80;91.90
5027;DHT22;2532;52.480;13.354;2024-01-30T07:51:00;5.80;91.90
5027;DHT22;2532;52.480;13.354;2024-01-30T07:53:28;5.80;92.30
5027;DHT22;2532;52.480;13.354;2024-01-30T07:55:55;5.90;92.60
5027;DHT22;2532;52.480;13.354;2024-01-30T07:58:23;5.90;92.50
5027;DHT22;2532;52.480;13.354;2024-01-30T08:00:52;6.00;92.50
5027;DHT22;2532;52.480;13.354;2024-01-30T08:03:19;6.00;92.30
5027;DHT22;2532;52.480;13.354;2024-01-30T08:05:46;6.10;92.10
5027;DHT22;2532;52.480;13.354;2024-01-30T08:08:13;6.10;92.00
5027;DHT22;2532;52.480;13.354;2024-01-30T08:10:40;6.20;91.80
5027;DHT22;2532;52.480;13.354;2024-01-30T08:13:07;6.20;91.80
5027;DHT22;2532;52.480;13.354;2024-01-30T08:15:36;6.30;91.70
5027;DHT22;2532;52.480;13.354;2024-01-30T08:18:03;6.30;91.50
5027;DHT22;2532;52.480;13.354;2024-01-30T08:20:31;6.40;91.50
5027;DHT22;2532;52.480;13.354;2024-01-30T08:22:58;6.40;91.50
5027;DHT22;2532;52.480;13.354;2024-01-30T08:25:26;6.40;91.40
5027;DHT22;2532;52.480;13.354;2024-01-30T08:27:52;6.50;91.40
5027;DHT22;2532;52.480;13.354;2024-01-30T08:30:19;6.50;91.10
5027;DHT22;2532;52.480;13.354;2024-01-30T08:32:47;6.50;91.00
5027;DHT22;2532;52.480;13.354;2024-01-30T08:35:14;6.40;90.90
5027;DHT22;2532;52.480;13.354;2024-01-30T08:37:42;6.50;90.90
5027;DHT22;2532;52.480;13.354;2024-01-30T08:40:09;6.50;91.00
5027;DHT22;2532;52.480;13.354;2024-01-30T08:42:36;6.50;90.90
5027;DHT22;2532;52.480;13.354;2024-01-30T08:45:04;6.50;90.90
5027;DHT22;2532;52.480;13.354;2024-01-30T08:47:31;6.50;90.90
5027;DHT22;2532;52.480;13.354;2024-01-30T08:50:00;6.60;90.90
5027;DHT22;2532;52.480;13.354;2024-01-30T08:52:27;6.60;90.80
5027;DHT22;2532;52.480;13.354;2024-01-30T08:54:54;6.60;90.70
5027;DHT22;2532;52.480;13.354;2024-01-30T08:57:21;6.70;90.50
5027;DHT22;2532;52.480;13.354;2024-01-30T08:59:48;6.70;90.50
5027;DHT22;2532;52.480;13.354;2024-01-30T09:02:15;6.80;90.50
5027;DHT22;2532;52.480;13.354;2024-01-30T09:04:43;6.80;90.50
5027;DHT22;2532;52.480;13.354;2024-01-30T09:07:11;6.90;90.40
5027;DHT22;2532;52.480;13.354;2024-01-30T09:09:39;6.90;90.20
5027;DHT22;2532;52.480;13.354;2024-01-30T09:12:07;7.00;90.20
5027;DHT22;2532;52.480;13.354;2024-01-30T09:14:35;7.00;90.10
5027;DHT22;2532;52.480;13.354;2024-01-30T09:17:02;7.00;90.10
5027;DHT22;2532;52.480;13.354;2024-01-30T09:19:30;7.00;90.10
5027;DHT22;2532;52.480;13.354;2024-01-30T09:21:57;7.10;89.70
5027;DHT22;2532;52.480;13.354;2024-01-30T09:24:26;7.10;89.80
5027;DHT22;2532;52.480;13.354;2024-01-30T09:26:53;7.20;90.00
5027;DHT22;2532;52.480;13.354;2024-01-30T09:29:20;7.20;89.80
5027;DHT22;2532;52.480;13.354;2024-01-30T09:31:47;7.20;89.30
5027;DHT22;2532;52.480;13.354;2024-01-30T09:34:14;7.30;89.50
5027;DHT22;2532;52.480;13.354;2024-01-30T09:36:41;7.30;89.50
5027;DHT22;2532;52.480;13.354;2024-01-30T09:39:08;7.30;89.10
5027;DHT22;2532;52.480;13.354;2024-01-30T09:41:41;7.30;89.10
5027;DHT22;2532;52.480;13.354;2024-01-30T09:44:11;7.30;89.20
5027;DHT22;2532;52.480;13.354;2024-01-30T09:46:39;7.40;89.20
5027;DHT22;2532;52.480;13.354;2024-01-30T09:49:07;7.40;88.70
5027;DHT22;2532;52.480;13.354;2024-01-30T09:51:35;7.50;88.80
5027;DHT22;2532;52.480;13.354;2024-01-30T09:54:03;7.50;88.30
5027;DHT22;2532;52.480;13.354;2024-01-30T09:56:30;7.60;88.30
5027;DHT22;2532;52.480;13.354;2024-01-30T09:58:58;7.50;88.20
5027;DHT22;2532;52.480;13.354;2024-01-30T10:01:25;7.60;88.00
5027;DHT22;2532;52.480;13.354;2024-01-30T10:03:54;7.70;88.10
5027;DHT22;2532;52.480;13.354;2024-01-30T10:06:21;7.70;87.70
5027;DHT22;2532;52.480;13.354;2024-01-30T10:08:49;7.80;87.40
5027;DHT22;2532;52.480;13.354;2024-01-30T10:11:16;7.90;87.00
5027;DHT22;2532;52.480;13.354;2024-01-30T10:13:43;8.00;86.90
5027;DHT22;2532;52.480;13.354;2024-01-30T10:16:13;8.00;86.40
5027;DHT22;2532;52.480;13.354;2024-01-30T10:18:41;8.10;86.80
5027;DHT22;2532;52.480;13.354;2024-01-30T10:21:08;8.10;85.90
5027;DHT22;2532;52.480;13.354;2024-01-30T10:23:35;8.10;85.60
5027;DHT22;2532;52.480;13.354;2024-01-30T10:26:03;8.20;85.40
5027;DHT22;2532;52.480;13.354;2024-01-30T10:28:30;8.20;85.30
5027;DHT22;2532;52.480;13.354;2024-01-30T10:30:57;8.20;84.90
5027;DHT22;2532;52.480;13.354;2024-01-30T10:33:26;8.30;85.10
5027;DHT22;2532;52.480;13.354;2024-01-30T10:35:55;8.30;85.10
5027;DHT22;2532;52.480;13.354;2024-01-30T10:38:29;8.40;84.70
5027;DHT22;2532;52.480;13.354;2024-01-30T10:40:57;8.40;84.30
5027;DHT22;2532;52.480;13.354;2024-01-30T10:43:30;8.50;84.30
5027;DHT22;2532;52.480;13.354;2024-01-30T10:46:09;8.50;84.30
5027;DHT22;2532;52.480;13.354;2024-01-30T10:48:42;8.50;84.10
5027;DHT22;2532;52.480;13.354;2024-01-30T10:51:11;8.60;84.00
5027;DHT22;2532;52.480;13.354;2024-01-30T10:53:39;8.60;83.70
5027;DHT22;2532;52.480;13.354;2024-01-30T10:56:06;8.60;83.60
5027;DHT22;2532;52.480;13.354;2024-01-30T10:58:33;8.70;83.60
5027;DHT22;2532;52.480;13.354;2024-01-30T11:01:01;8.70;83.20
5027;DHT22;2532;52.480;13.354;2024-01-30T11:03:28;8.80;82.80
5027;DHT22;2532;52.480;13.354;2024-01-30T11:05:59;8.80;82.70
5027;DHT22;2532;52.480;13.354;2024-01-30T11:08:27;8.80;82.90
5027;DHT22;2532;52.480;13.354;2024-01-30T11:10:56;8.90;82.80
5027;DHT22;2532;52.480;13.354;2024-01-30T11:13:27;8.90;82.70
5027;DHT22;2532;52.480;13.354;2024-01-30T11:15:55;9.00;82.70
5027;DHT22;2532;52.480;13.354;2024-01-30T11:18:25;9.00;82.60
5027;DHT22;2532;52.480;13.354;2024-01-30T11:20:52;9.00;82.40
5027;DHT22;2532;52.480;13.354;2024-01-30T11:23:22;9.10;82.20
5027;DHT22;2532;52.480;13.354;2024-01-30T11:25:49;9.10;82.20
5027;DHT22;2532;52.480;13.354;2024-01-30T11:28:19;9.20;82.30
5027;DHT22;2532;52.480;13.354;2024-01-30T11:30:47;9.20;82.40
5027;DHT22;2532;52.480;13.354;2024-01-30T11:33:27;9.20;82.20
5027;DHT22;2532;52.480;13.354;2024-01-30T11:35:57;9.30;82.30
5027;DHT22;2532;52.480;13.354;2024-01-30T11:38:27;9.30;82.10
5027;DHT22;2532;52.480;13.354;2024-01-30T11:40:55;9.40;82.20
5027;DHT22;2532;52.480;13.354;2024-01-30T11:43:22;9.40;82.30
5027;DHT22;2532;52.480;13.354;2024-01-30T11:45:49;9.50;81.60
5027;DHT22;2532;52.480;13.354;2024-01-30T11:48:17;9.50;81.60
5027;DHT22;2532;52.480;13.354;2024-01-30T11:50:44;9.50;81.50
5027;DHT22;2532;52.480;13.354;2024-01-30T11:53:11;9.50;81.40
5027;DHT22;2532;52.480;13.354;2024-01-30T11:55:40;9.60;81.40
5027;DHT22;2532;52.480;13.354;2024-01-30T11:58:08;9.60;81.40
5027;DHT22;2532;52.480;13.354;2024-01-30T12:00:35;9.60;81.40
5027;DHT22;2532;52.480;13.354;2024-01-30T12:03:01;9.70;81.30
5027;DHT22;2532;52.480;13.354;2024-01-30T12:05:28;9.70;81.30
5027;DHT22;2532;52.480;13.354;2024-01-30T12:07:55;9.70;81.20
5027;DHT22;2532;52.480;13.354;2024-01-30T12:10:24;9.70;81.50
5027;DHT22;2532;52.480;13.354;2024-01-30T12:12:54;9.70;81.70
5027;DHT22;2532;52.480;13.354;2024-01-30T12:15:22;9.70;81.70
5027;DHT22;2532;52.480;13.354;2024-01-30T12:17:49;9.80;81.80
5027;DHT22;2532;52.480;13.354;2024-01-30T12:20:19;9.80;81.40
5027;DHT22;2532;52.480;13.354;2024-01-30T12:22:48;9.90;81.50
5027;DHT22;2532;52.480;13.354;2024-01-30T12:25:16;9.90;81.80
5027;DHT22;2532;52.480;13.354;2024-01-30T12:27:45;9.90;81.70
5027;DHT22;2532;52.480;13.354;2024-01-30T12:30:17;10.00;80.90
5027;DHT22;2532;52.480;13.354;2024-01-30T12:32:46;9.90;81.90
5027;DHT22;2532;52.480;13.354;2024-01-30T12:35:14;9.90;82.10
5027;DHT22;2532;52.480;13.354;2024-01-30T12:37:43;9.90;82.10
5027;DHT22;2532;52.480;13.354;2024-01-30T12:40:11;9.90;82.60
5027;DHT22;2532;52.480;13.354;2024-01-30T12:42:40;10.00;81.70
5027;DHT22;2532;52.480;13.354;2024-01-30T12:45:08;10.00;81.70
5027;DHT22;2532;52.480;13.354;2024-01-30T12:47:37;10.10;81.80
5027;DHT22;2532;52.480;13.354;2024-01-30T12:50:07;10.10;81.60
5027;DHT22;2532;52.480;13.354;2024-01-30T12:52:36;10.10;81.70
5027;DHT22;2532;52.480;13.354;2024-01-30T12:55:03;10.20;82.10
5027;DHT22;2532;52.480;13.354;2024-01-30T12:57:30;10.20;82.20
5027;DHT22;2532;52.480;13.354;2024-01-30T12:59:57;10.20;82.10
5027;DHT22;2532;52.480;13.354;2024-01-30T13:02:24;10.30;82.40
5027;DHT22;2532;52.480;13.354;2024-01-30T13:04:53;10.30;82.50
5027;DHT22;2532;52.480;13.354;2024-01-30T13:07:23;10.30;82.40
5027;DHT22;2532;52.480;13.354;2024-01-30T13:09:50;10.30;82.50
5027;DHT22;2532;52.480;13.354;2024-01-30T13:12:19;10.30;82.40
5027;DHT22;2532;52.480;13.354;2024-01-30T13:14:46;10.40;82.60
5027;DHT22;2532;52.480;13.354;2024-01-30T13:17:13;10.40;82.40
5027;DHT22;2532;52.480;13.354;2024-01-30T13:19:40;10.40;82.70
5027;DHT22;2532;52.480;13.354;2024-01-30T13:22:08;10.40;82.60
5027;DHT22;2532;52.480;13.354;2024-01-30T13:24:35;10.40;82.80
5027;DHT22;2532;52.480;13.354;2024-01-30T13:27:03;10.40;82.90
5027;DHT22;2532;52.480;13.354;2024-01-30T13:29:31;10.40;82.90
5027;DHT22;2532;52.480;13.354;2024-01-30T13:31:58;10.40;83.00
5027;DHT22;2532;52.480;13.354;2024-01-30T13:34:25;10.50;83.10
5027;DHT22;2532;52.480;13.354;2024-01-30T13:36:53;10.50;83.10
5027;DHT22;2532;52.480;13.354;2024-01-30T13:39:21;10.50;83.00
5027;DHT22;2532;52.480;13.354;2024-01-30T13:41:49;10.50;83.00
5027;DHT22;2532;52.480;13.354;2024-01-30T13:44:16;10.50;83.20
5027;DHT22;2532;52.480;13.354;2024-01-30T13:46:43;10.60;83.30
5027;DHT22;2532;52.480;13.354;2024-01-30T13:49:10;10.60;83.30
5027;DHT22;2532;52.480;13.354;2024-01-30T13:51:37;10.60;83.20
5027;DHT22;2532;52.480;13.354;2024-01-30T13:54:04;10.60;83.30
5027;DHT22;2532;52.480;13.354;2024-01-30T13:56:33;10.60;83.40
5027;DHT22;2532;52.480;13.354;2024-01-30T13:59:00;10.60;83.40
5027;DHT22;2532;52.480;13.354;2024-01-30T14:01:30;10.60;83.40
5027;DHT22;2532;52.480;13.354;2024-01-30T14:03:57;10.70;83.60
5027;DHT22;2532;52.480;13.354;2024-01-30T14:06:25;10.70;83.60
5027;DHT22;2532;52.480;13.354;2024-01-30T14:08:52;10.70;83.60
5027;DHT22;2532;52.480;13.354;2024-01-30T14:11:19;10.70;83.70
5027;DHT22;2532;52.480;13.354;2024-01-30T14:13:48;10.70;84.00
5027;DHT22;2532;52.480;13.354;2024-01-30T14:16:15;10.80;84.10
5027;DHT22;2532;52.480;13.354;2024-01-30T14:18:42;10.80;84.10
5027;DHT22;2532;52.480;13.354;2024-01-30T14:21:09;10.80;84.10
5027;DHT22;2532;52.480;13.354;2024-01-30T14:23:36;10.80;84.20
5027;DHT22;2532;52.480;13.354;2024-01-30T14:26:04;10.80;84.30
5027;DHT22;2532;52.480;13.354;2024-01-30T14:28:31;10.80;84.50
5027;DHT22;2532;52.480;13.354;2024-01-30T14:31:00;10.80;84.50
5027;DHT22;2532;52.480;13.354;2024-01-30T14:33:27;10.80;84.50
5027;DHT22;2532;52.480;13.354;2024-01-30T14:35:54;10.80;84.60
5027;DHT22;2532;52.480;13.354;2024-01-30T14:38:21;10.80;84.80
5027;DHT22;2532;52.480;13.354;2024-01-30T14:40:50;10.80;85.00
5027;DHT22;2532;52.480;13.354;2024-01-30T14:43:17;10.80;85.00
5027;DHT22;2532;52.480;13.354;2024-01-30T14:45:44;10.80;85.10
5027;DHT22;2532;52.480;13.354;2024-01-30T14:48:16;10.80;85.20
5027;DHT22;2532;52.480;13.354;2024-01-30T14:50:44;10.80;85.30
5027;DHT22;2532;52.480;13.354;2024-01-30T14:53:11;10.80;85.40
5027;DHT22;2532;52.480;13.354;2024-01-30T14:55:38;10.80;85.50
5027;DHT22;2532;52.480;13.354;2024-01-30T14:58:05;10.70;85.50
5027;DHT22;2532;52.480;13.354;2024-01-30T15:00:32;10.70;85.60
5027;DHT22;2532;52.480;13.354;2024-01-30T15:02:59;10.80;85.80
5027;DHT22;2532;52.480;13.354;2024-01-30T15:05:28;10.70;85.90
5027;DHT22;2532;52.480;13.354;2024-01-30T15:07:55;10.70;86.10
5027;DHT22;2532;52.480;13.354;2024-01-30T15:10:22;10.70;86.30
5027;DHT22;2532;52.480;13.354;2024-01-30T15:12:49;10.70;86.40
5027;DHT22;2532;52.480;13.354;2024-01-30T15:15:17;10.60;86.30
5027;DHT22;2532;52.480;13.354;2024-01-30T15:17:44;10.60;86.50
5027;DHT22;2532;52.480;13.354;2024-01-30T15:20:11;10.60;86.60
5027;DHT22;2532;52.480;13.354;2024-01-30T15:22:40;10.60;86.80
5027;DHT22;2532;52.480;13.354;2024-01-30T15:25:07;10.60;86.80
5027;DHT22;2532;52.480;13.354;2024-01-30T15:27:34;10.60;86.90
5027;DHT22;2532;52.480;13.354;2024-01-30T15:30:01;10.50;87.00
5027;DHT22;2532;52.480;13.354;2024-01-30T15:32:30;10.50;87.80
5027;DHT22;2532;52.480;13.354;2024-01-30T15:34:57;10.50;87.20
5027;DHT22;2532;52.480;13.354;2024-01-30T15:37:26;10.50;87.30
5027;DHT22;2532;52.480;13.354;2024-01-30T15:39:55;10.50;87.40
5027;DHT22;2532;52.480;13.354;2024-01-30T15:42:22;10.50;87.60
5027;DHT22;2532;52.480;13.354;2024-01-30T15:44:49;10.40;87.60
5027;DHT22;2532;52.480;13.354;2024-01-30T15:47:17;10.40;87.60
5027;DHT22;2532;52.480;13.354;2024-01-30T15:49:44;10.40;87.70
5027;DHT22;2532;52.480;13.354;2024-01-30T15:52:11;10.40;87.80
5027;DHT22;2532;52.480;13.354;2024-01-30T15:54:40;10.30;87.80
5027;DHT22;2532;52.480;13.354;2024-01-30T15:57:08;10.30;87.90
5027;DHT22;2532;52.480;13.354;2024-01-30T15:59:36;10.30;88.10